Terminal Aerodrome Forecast
Issued by NWS Corpus Christi, TX

Home | Current Version | Previous Version | Text Only | Print | Product List | Glossary On
Versions: 1 2 3 4 5 6 7 8 9 10 11 12 13 14 15 16 17 18 19 20 21 22 23 24 25 26 27 28 29 30 31 32
000
FTUS44 KCRP 022331
TAFCRP
TAF
KCRP 022331Z 0300/0324 11012G16KT P6SM SCT025 BKN200
     FM030800 12007KT P6SM VCSH SCT020
      TEMPO 0308/0310 BKN020
     FM031000 12005KT P6SM VCSH BKN020
     FM031800 12010G15KT P6SM SCT035 BKN250
     FM032200 09012G18KT P6SM SCT040=

USA.gov is the U.S. government's official web portal to all federal, state and local government web resources and services.